メインページ
METAR-TAF:

METAR-TAF

空港 :

Chatham-Kent Municipal Airport

チャタム・ケント, オンタリオ州, カナダ

緯度: 42-18-22N, 経度: 82-04-54W, 海抜: 197m

現時点の気象観測

当レポートは51分前の04:00(UTC)に作成
無風
気温 21°C
湿度 94%
気圧 1013 hPa
視程: 14.5km
高度15000ftの曇り

METAR: CYCK 210400Z AUTO 00000KT 9SM OVC150 21/20 A2992 RMK SLP131 DENSITY ALT 1400FT

時間: 00:51 (04:51 UTC)


TAF: 見つかりません

4,000以上の空港の気象観測と天気予報(METAR報とTAF報)

利用可能な観測所は地図上に黄色い丸と赤い丸で示す。

丸の上にカーソルを重ねると観測所名を参照できる。

次にクリックすると気象観測と天気予報を参照できる。

マップの切り替え:黒色「×」印の緑ボタンをクリックして拡大、「-」印の緑ボタンをクリックして縮小、緑色の三角印をクリックして隣りの地図に切り替え


METAR-TAF: